Langoeysund — LHFJ — position and weather

sailwx.info

Track history (hours):
 
Tides and Currents Weather Stations Pressure Air Temp Water Temp Dewpoint Dewpoint Depression Visibility Wind Speed Wind Dir Waves Ship Positions

Langoeysund

Last reported at 2018-Feb-27 08:35 UTC. Time now 2018-Apr-24 14:34 UTC.
Position N 69°47' E 019°15'.
Warning: this ship's position is 56 days out of date.

Type: Passenger vessel. MMSI: 258298000.

Date/timePositionNaut miles runAvg speedWind from/ knotsBaromVisibWave heightAir tempDewpointWater temp
2018-Feb-27 08:35N 69°47' E 019°15'1 9.3
2018-Feb-27 08:29N 69°47' E 019°13'4 8.9
2018-Feb-27 08:00N 69°44' E 019°04'4 8.9
2018-Feb-27 07:30N 69°40' E 018°60'1 1.5
2018-Feb-27 06:58N 69°39' E 018°58'0 0.0
2018-Feb-27 06:28N 69°39' E 018°58'0 0.0
2018-Feb-27 05:58N 69°39' E 018°58'0 0.0
2018-Feb-27 05:28N 69°39' E 018°58'0 0.0
2018-Feb-27 04:58N 69°39' E 018°58'0 0.0
2018-Feb-27 04:28N 69°39' E 018°58'0 0.0
2018-Feb-27 03:58N 69°39' E 018°58'0 0.0
2018-Feb-27 03:28N 69°39' E 018°58'0 0.0
2018-Feb-27 02:58N 69°39' E 018°58'0 0.0
2018-Feb-27 02:28N 69°39' E 018°58'0 0.0
2018-Feb-27 01:58N 69°39' E 018°58'0 0.0
2018-Feb-27 01:28N 69°39' E 018°58'0 0.0
2018-Feb-27 00:58N 69°39' E 018°58'0 0.0
2018-Feb-27 00:28N 69°39' E 018°58'0 0.0
2018-Feb-26 23:58N 69°39' E 018°58'0 0.0
2018-Feb-26 23:28N 69°39' E 018°58'0 0.0
2018-Feb-26 22:58N 69°39' E 018°58'0 0.0
2018-Feb-26 22:28N 69°39' E 018°58'0 0.0
2018-Feb-26 21:58N 69°39' E 018°58'0 0.0
2018-Feb-26 21:28N 69°39' E 018°58'0 0.0
2018-Feb-26 20:58N 69°39' E 018°58'0 0.0
2018-Feb-26 20:28N 69°39' E 018°58'0 0.0
2018-Feb-26 19:58N 69°39' E 018°58'0 0.0
2018-Feb-26 19:28N 69°39' E 018°58'0 0.0
2018-Feb-26 18:58N 69°39' E 018°58'0 0.0
2018-Feb-26 18:28N 69°39' E 018°58'0 0.0
2018-Feb-26 17:58N 69°39' E 018°58'0 0.0
2018-Feb-26 17:28N 69°39' E 018°58'0 0.0
2018-Feb-26 16:58N 69°39' E 018°58'0 0.0
2018-Feb-26 16:25N 69°39' E 018°58'0 0.0
2018-Feb-26 15:58N 69°39' E 018°58'0 0.0
2018-Feb-26 15:28N 69°39' E 018°58'0 0.0
2018-Feb-26 14:58N 69°39' E 018°58'0 0.0
2018-Feb-26 14:28N 69°39' E 018°58'0 0.0
2018-Feb-26 13:58N 69°39' E 018°58'0 0.0
2018-Feb-26 13:28N 69°39' E 018°58'0 0.0
2018-Feb-26 12:58N 69°39' E 018°58'0 0.0
2018-Feb-26 12:28N 69°39' E 018°58'0 0.0
2018-Feb-26 11:58N 69°39' E 018°58'0 0.0
2018-Feb-26 11:28N 69°39' E 018°58'0 0.0
2018-Feb-26 10:58N 69°39' E 018°58'0 0.0
2018-Feb-26 10:27N 69°39' E 018°58'0 0.4
2018-Feb-26 09:58N 69°39' E 018°58'0 0.0
2018-Feb-26 09:28N 69°39' E 018°58'0 0.0
2018-Feb-26 08:58N 69°39' E 018°58'0 0.0
2018-Feb-26 08:28N 69°39' E 018°58'  
2018-Feb-20 18:44N 69°40' E 018°45'0 0.0
2018-Feb-20 18:29N 69°40' E 018°45'0 0.0
2018-Feb-20 17:59N 69°40' E 018°45'0 0.0
2018-Feb-20 17:26N 69°40' E 018°45'0 0.0
2018-Feb-20 16:59N 69°40' E 018°45'0 0.0
2018-Feb-20 16:29N 69°40' E 018°45'0 0.0
2018-Feb-20 15:59N 69°40' E 018°45'0 0.0
2018-Feb-20 15:29N 69°40' E 018°45'0 0.0
2018-Feb-20 14:59N 69°40' E 018°45'0 0.0
2018-Feb-20 14:29N 69°40' E 018°45'0 0.0
2018-Feb-20 13:59N 69°40' E 018°45'0 0.0
2018-Feb-20 13:29N 69°40' E 018°45'0 0.0
2018-Feb-20 12:59N 69°40' E 018°45'0 0.0
2018-Feb-19 05:17N 69°40' E 018°45'  
Track history (hours):
 
Tides and Currents Weather Stations Pressure Air Temp Water Temp Dewpoint Dewpoint Depression Visibility Wind Speed Wind Dir Waves Ship Positions

Langoeysund

Last reported at 2018-Feb-27 08:35 UTC. Time now 2018-Apr-24 14:34 UTC.
Position N 69°47' E 019°15'.
Warning: this ship's position is 56 days out of date.

Type: Passenger vessel. MMSI: 258298000.

Date/timePositionNaut miles runAvg speedWind from/ knotsBaromVisibWave heightAir tempDewpointWater temp
2018-Feb-27 08:35N 69°47' E 019°15'1 9.3
2018-Feb-27 08:29N 69°47' E 019°13'4 8.9
2018-Feb-27 08:00N 69°44' E 019°04'4 8.9
2018-Feb-27 07:30N 69°40' E 018°60'1 1.5
2018-Feb-27 06:58N 69°39' E 018°58'0 0.0
2018-Feb-27 06:28N 69°39' E 018°58'0 0.0
2018-Feb-27 05:58N 69°39' E 018°58'0 0.0
2018-Feb-27 05:28N 69°39' E 018°58'0 0.0
2018-Feb-27 04:58N 69°39' E 018°58'0 0.0
2018-Feb-27 04:28N 69°39' E 018°58'0 0.0
2018-Feb-27 03:58N 69°39' E 018°58'0 0.0
2018-Feb-27 03:28N 69°39' E 018°58'0 0.0
2018-Feb-27 02:58N 69°39' E 018°58'0 0.0
2018-Feb-27 02:28N 69°39' E 018°58'0 0.0
2018-Feb-27 01:58N 69°39' E 018°58'0 0.0
2018-Feb-27 01:28N 69°39' E 018°58'0 0.0
2018-Feb-27 00:58N 69°39' E 018°58'0 0.0
2018-Feb-27 00:28N 69°39' E 018°58'0 0.0
2018-Feb-26 23:58N 69°39' E 018°58'0 0.0
2018-Feb-26 23:28N 69°39' E 018°58'0 0.0
2018-Feb-26 22:58N 69°39' E 018°58'0 0.0
2018-Feb-26 22:28N 69°39' E 018°58'0 0.0
2018-Feb-26 21:58N 69°39' E 018°58'0 0.0
2018-Feb-26 21:28N 69°39' E 018°58'0 0.0
2018-Feb-26 20:58N 69°39' E 018°58'0 0.0
2018-Feb-26 20:28N 69°39' E 018°58'0 0.0
2018-Feb-26 19:58N 69°39' E 018°58'0 0.0
2018-Feb-26 19:28N 69°39' E 018°58'0 0.0
2018-Feb-26 18:58N 69°39' E 018°58'0 0.0
2018-Feb-26 18:28N 69°39' E 018°58'0 0.0
2018-Feb-26 17:58N 69°39' E 018°58'0 0.0
2018-Feb-26 17:28N 69°39' E 018°58'0 0.0
2018-Feb-26 16:58N 69°39' E 018°58'0 0.0
2018-Feb-26 16:25N 69°39' E 018°58'0 0.0
2018-Feb-26 15:58N 69°39' E 018°58'0 0.0
2018-Feb-26 15:28N 69°39' E 018°58'0 0.0
2018-Feb-26 14:58N 69°39' E 018°58'0 0.0
2018-Feb-26 14:28N 69°39' E 018°58'0 0.0
2018-Feb-26 13:58N 69°39' E 018°58'0 0.0
2018-Feb-26 13:28N 69°39' E 018°58'0 0.0
2018-Feb-26 12:58N 69°39' E 018°58'0 0.0
2018-Feb-26 12:28N 69°39' E 018°58'0 0.0
2018-Feb-26 11:58N 69°39' E 018°58'0 0.0
2018-Feb-26 11:28N 69°39' E 018°58'0 0.0
2018-Feb-26 10:58N 69°39' E 018°58'0 0.0
2018-Feb-26 10:27N 69°39' E 018°58'0 0.4
2018-Feb-26 09:58N 69°39' E 018°58'0 0.0
2018-Feb-26 09:28N 69°39' E 018°58'0 0.0
2018-Feb-26 08:58N 69°39' E 018°58'0 0.0
2018-Feb-26 08:28N 69°39' E 018°58'  
2018-Feb-20 18:44N 69°40' E 018°45'0 0.0
2018-Feb-20 18:29N 69°40' E 018°45'0 0.0
2018-Feb-20 17:59N 69°40' E 018°45'0 0.0
2018-Feb-20 17:26N 69°40' E 018°45'0 0.0
2018-Feb-20 16:59N 69°40' E 018°45'0 0.0
2018-Feb-20 16:29N 69°40' E 018°45'0 0.0
2018-Feb-20 15:59N 69°40' E 018°45'0 0.0
2018-Feb-20 15:29N 69°40' E 018°45'0 0.0
2018-Feb-20 14:59N 69°40' E 018°45'0 0.0
2018-Feb-20 14:29N 69°40' E 018°45'0 0.0
2018-Feb-20 13:59N 69°40' E 018°45'0 0.0
2018-Feb-20 13:29N 69°40' E 018°45'0 0.0
2018-Feb-20 12:59N 69°40' E 018°45'0 0.0
2018-Feb-19 05:17N 69°40' E 018°45'  

Dump ship's entire track history